createdAt,value
2018-03-21T00:01:35.267Z,10.25
2018-03-21T00:04:10.743Z,9.30
2018-03-21T00:06:45.167Z,9.52
2018-03-21T00:09:20.516Z,10.20
2018-03-21T00:11:55.009Z,7.30
2018-03-21T00:14:30.475Z,10.63
2018-03-21T00:17:04.942Z,11.02
2018-03-21T00:19:39.444Z,9.75
2018-03-21T00:22:13.811Z,12.57
2018-03-21T00:24:48.327Z,7.15
2018-03-21T00:27:22.863Z,6.93
2018-03-21T00:29:58.224Z,6.95
2018-03-21T00:32:32.671Z,8.35
2018-03-21T00:35:07.275Z,8.85
2018-03-21T00:37:41.811Z,6.75
2018-03-21T00:40:16.320Z,6.30
2018-03-21T00:42:50.964Z,8.15
2018-03-21T00:45:25.384Z,8.20
2018-03-21T00:47:59.988Z,9.55
2018-03-21T00:50:34.646Z,5.72
2018-03-21T00:53:09.047Z,6.68
2018-03-21T00:55:43.680Z,7.32
2018-03-21T00:58:18.115Z,7.50
2018-03-21T01:00:52.690Z,6.03
2018-03-21T01:03:27.233Z,8.05
2018-03-21T01:06:01.774Z,5.70
2018-03-21T01:08:36.436Z,7.20
2018-03-21T01:11:11.013Z,7.85
2018-03-21T01:13:46.239Z,8.20
2018-03-21T01:16:20.670Z,8.10
2018-03-21T01:18:55.500Z,9.43
2018-03-21T01:21:30.124Z,8.40
2018-03-21T01:24:04.439Z,7.30
2018-03-21T01:26:39.172Z,7.65
2018-03-21T01:29:13.607Z,7.25
2018-03-21T01:31:48.216Z,6.37
2018-03-21T01:34:23.568Z,7.65
2018-03-21T01:36:58.070Z,8.38
2018-03-21T01:39:32.604Z,7.00
2018-03-21T01:42:07.153Z,7.30
2018-03-21T01:44:42.395Z,7.37
2018-03-21T01:47:16.994Z,5.60
2018-03-21T01:49:51.556Z,6.78
2018-03-21T01:52:26.455Z,4.18
2018-03-21T01:55:01.520Z,4.00
2018-03-21T01:57:36.018Z,4.10
2018-03-21T02:00:10.578Z,4.07
2018-03-21T02:02:45.165Z,4.70
2018-03-21T02:05:19.664Z,5.68
2018-03-21T02:07:54.211Z,5.45
2018-03-21T02:10:28.807Z,4.45
2018-03-21T02:13:03.471Z,5.22
2018-03-21T02:15:37.906Z,4.80
2018-03-21T02:18:12.816Z,4.78
2018-03-21T02:20:47.154Z,5.15
2018-03-21T02:23:21.756Z,4.78
2018-03-21T02:25:57.125Z,6.50
2018-03-21T02:28:32.028Z,5.37
2018-03-21T02:31:07.459Z,4.00
2018-03-21T02:33:42.713Z,4.10
2018-03-21T02:36:17.205Z,4.15
2018-03-21T02:38:51.696Z,3.95
2018-03-21T02:41:26.108Z,4.87
2018-03-21T02:44:00.815Z,4.20
2018-03-21T02:46:35.322Z,4.12
2018-03-21T02:49:09.776Z,4.93
2018-03-21T02:51:44.638Z,4.60
2018-03-21T02:54:19.110Z,4.75
2018-03-21T02:56:54.259Z,4.18
2018-03-21T02:59:29.593Z,4.82
2018-03-21T03:02:04.083Z,5.43
2018-03-21T03:04:38.628Z,4.20
2018-03-21T03:07:13.181Z,4.47
2018-03-21T03:09:47.684Z,4.82
2018-03-21T03:12:22.198Z,4.30
2018-03-21T03:14:56.945Z,4.82
2018-03-21T03:17:31.452Z,4.10
2018-03-21T03:20:06.026Z,4.57
2018-03-21T03:22:40.525Z,4.40
2018-03-21T03:25:15.033Z,5.10
2018-03-21T03:27:50.376Z,5.20
2018-03-21T03:30:25.745Z,5.47
2018-03-21T03:33:00.316Z,4.78
2018-03-21T03:35:34.748Z,4.65
2018-03-21T03:38:09.048Z,4.72
2018-03-21T03:40:44.008Z,4.65
2018-03-21T03:43:18.579Z,4.80
2018-03-21T03:45:54.084Z,4.57
2018-03-21T03:48:28.423Z,4.93
2018-03-21T03:51:03.745Z,5.12
2018-03-21T03:53:38.332Z,5.15
2018-03-21T03:56:12.995Z,4.00
2018-03-21T03:58:48.641Z,4.78
2018-03-21T04:01:23.274Z,5.05
2018-03-21T04:03:57.855Z,4.32
2018-03-21T04:06:32.516Z,5.20
2018-03-21T04:09:07.123Z,4.85
2018-03-21T04:11:41.564Z,4.07
2018-03-21T04:14:16.902Z,4.18
2018-03-21T04:16:51.639Z,4.78
2018-03-21T04:19:26.222Z,3.80
2018-03-21T04:22:00.681Z,4.40
2018-03-21T04:24:35.312Z,3.78
2018-03-21T04:27:10.139Z,4.22
2018-03-21T04:29:44.581Z,4.50
2018-03-21T04:32:19.152Z,3.47
2018-03-21T04:34:54.278Z,3.50
2018-03-21T04:37:29.666Z,4.22
2018-03-21T04:40:04.308Z,4.28
2018-03-21T04:42:38.922Z,4.35
2018-03-21T04:45:13.515Z,3.45
2018-03-21T04:47:48.146Z,3.92
2018-03-21T04:50:22.668Z,4.12
2018-03-21T04:52:57.212Z,3.72
2018-03-21T04:55:32.028Z,4.12
2018-03-21T04:58:06.608Z,4.93
2018-03-21T05:00:40.978Z,3.62
2018-03-21T05:03:16.092Z,5.03
2018-03-21T05:05:50.655Z,4.68
2018-03-21T05:08:25.610Z,4.50
2018-03-21T05:11:00.061Z,3.70
2018-03-21T05:13:34.663Z,4.55
2018-03-21T05:16:09.240Z,3.92
2018-03-21T05:18:43.880Z,4.95
2018-03-21T05:21:18.388Z,4.30
2018-03-21T05:23:53.135Z,5.70
2018-03-21T05:26:27.648Z,5.00
2018-03-21T05:29:02.175Z,3.62
2018-03-21T05:31:36.718Z,4.82
2018-03-21T05:34:12.036Z,5.32
2018-03-21T05:36:46.571Z,3.75
2018-03-21T05:39:21.092Z,3.33
2018-03-21T05:41:55.683Z,3.55
2018-03-21T05:44:31.031Z,3.78
2018-03-21T05:47:05.449Z,4.15
2018-03-21T05:49:40.024Z,3.95
2018-03-21T05:52:15.523Z,4.45
2018-03-21T05:54:50.412Z,3.50
2018-03-21T05:57:24.907Z,3.60
2018-03-21T06:00:00.346Z,4.12
2018-03-21T06:02:34.856Z,4.68
2018-03-21T06:05:09.600Z,5.50
2018-03-21T06:07:44.139Z,5.28
2018-03-21T06:10:18.646Z,5.80
2018-03-21T06:12:54.172Z,5.22
2018-03-21T06:15:28.714Z,4.37
2018-03-21T06:18:03.315Z,4.65
2018-03-21T06:20:38.795Z,4.40
2018-03-21T06:23:13.321Z,3.97
2018-03-21T06:25:47.837Z,4.12
2018-03-21T06:28:23.175Z,5.22
2018-03-21T06:30:57.703Z,4.35
2018-03-21T06:33:34.162Z,4.57
2018-03-21T06:36:09.812Z,4.15
2018-03-21T06:38:44.348Z,4.28
2018-03-21T06:41:18.859Z,3.95
2018-03-21T06:43:53.731Z,3.90
2018-03-21T06:46:28.268Z,4.05
2018-03-21T06:49:02.816Z,3.95
2018-03-21T06:51:37.577Z,4.57
2018-03-21T06:54:12.034Z,4.35
2018-03-21T06:56:46.620Z,4.80
2018-03-21T06:59:22.572Z,4.47
2018-03-21T07:01:57.092Z,4.28
2018-03-21T07:04:31.608Z,4.62
2018-03-21T07:07:06.340Z,4.20
2018-03-21T07:09:41.330Z,4.40
2018-03-21T07:12:16.015Z,4.10
2018-03-21T07:15:08.628Z,4.65
2018-03-21T07:17:43.287Z,3.95
2018-03-21T07:20:17.676Z,3.80
2018-03-21T07:22:52.968Z,4.47
2018-03-21T07:25:27.360Z,3.80
2018-03-21T07:28:01.988Z,5.18
2018-03-21T07:30:36.607Z,4.60
2018-03-21T07:33:12.068Z,4.18
2018-03-21T07:35:46.610Z,4.95
2018-03-21T07:38:21.217Z,4.57
2018-03-21T07:40:55.825Z,4.15
2018-03-21T07:43:30.473Z,4.65
2018-03-21T07:46:04.840Z,4.10
2018-03-21T07:48:39.375Z,4.80
2018-03-21T07:51:13.801Z,3.45
2018-03-21T07:53:48.355Z,4.07
2018-03-21T07:56:22.659Z,3.67
2018-03-21T07:58:57.438Z,3.65
2018-03-21T08:01:31.903Z,4.50
2018-03-21T08:04:06.456Z,3.90
2018-03-21T08:06:42.539Z,2.80
2018-03-21T08:09:17.436Z,3.80
2018-03-21T08:11:51.899Z,3.45
2018-03-21T08:14:26.618Z,2.90
2018-03-21T08:17:01.112Z,3.25
2018-03-21T08:19:35.664Z,3.70
2018-03-21T08:22:10.399Z,3.80
2018-03-21T08:24:45.604Z,3.55
2018-03-21T08:27:20.003Z,4.00
2018-03-21T08:29:54.639Z,3.80
2018-03-21T08:32:29.195Z,3.83
2018-03-21T08:35:04.104Z,3.40
2018-03-21T08:37:38.627Z,4.30
2018-03-21T08:40:13.346Z,3.50
2018-03-21T08:42:47.749Z,4.20
2018-03-21T08:45:22.396Z,4.03
2018-03-21T08:47:56.812Z,4.70
2018-03-21T08:50:31.856Z,4.05
2018-03-21T08:53:06.109Z,4.47
2018-03-21T08:55:40.714Z,5.47
2018-03-21T08:58:15.209Z,6.05
2018-03-21T09:00:49.739Z,4.32
2018-03-21T09:03:25.078Z,3.75
2018-03-21T09:05:59.828Z,3.72
2018-03-21T09:08:34.271Z,3.92
2018-03-21T09:11:08.861Z,4.32
2018-03-21T09:13:43.466Z,3.92
2018-03-21T09:16:21.393Z,4.65
2018-03-21T09:18:55.903Z,4.80
2018-03-21T09:21:30.644Z,4.22
2018-03-21T09:24:05.161Z,4.20
2018-03-21T09:26:39.713Z,3.45
2018-03-21T09:29:14.630Z,3.85
2018-03-21T09:31:50.166Z,3.87
2018-03-21T09:34:25.280Z,4.43
2018-03-21T09:37:00.031Z,3.50
2018-03-21T09:39:34.491Z,3.70
2018-03-21T09:42:09.078Z,3.70
2018-03-21T09:44:43.642Z,4.20
2018-03-21T09:47:18.336Z,3.45
2018-03-21T09:49:52.771Z,4.10
2018-03-21T09:52:27.372Z,3.37
2018-03-21T09:55:02.508Z,4.25
2018-03-21T09:57:37.237Z,3.20
2018-03-21T10:00:11.783Z,3.10
2018-03-21T10:02:46.298Z,3.47
2018-03-21T10:05:20.720Z,3.80
2018-03-21T10:07:55.328Z,3.25
2018-03-21T10:10:29.987Z,3.28
2018-03-21T10:13:04.902Z,3.67
2018-03-21T10:15:39.396Z,3.05
2018-03-21T10:18:14.755Z,3.60
2018-03-21T10:20:49.220Z,3.33
2018-03-21T10:23:24.044Z,3.60
2018-03-21T10:25:58.545Z,3.92
2018-03-21T10:28:33.265Z,3.40
2018-03-21T10:31:07.722Z,3.90
2018-03-21T10:33:42.539Z,2.75
2018-03-21T10:36:17.096Z,3.42
2018-03-21T10:38:51.763Z,3.30
2018-03-21T10:41:26.132Z,4.50
2018-03-21T10:44:00.804Z,3.62
2018-03-21T10:46:35.160Z,2.90
2018-03-21T10:49:09.877Z,3.72
2018-03-21T10:51:44.342Z,4.82
2018-03-21T10:54:19.020Z,4.30
2018-03-21T10:56:53.624Z,3.40
2018-03-21T10:59:28.163Z,4.70
2018-03-21T11:02:08.719Z,3.80
2018-03-21T11:04:43.243Z,3.40
2018-03-21T11:07:17.556Z,4.07
2018-03-21T11:09:52.192Z,3.87
2018-03-21T11:12:26.808Z,4.85
2018-03-21T11:15:01.665Z,4.53
2018-03-21T11:17:36.119Z,4.18
2018-03-21T11:20:11.372Z,3.60
2018-03-21T11:22:45.849Z,4.55
2018-03-21T11:25:20.556Z,4.22
2018-03-21T11:27:55.036Z,6.40
2018-03-21T11:30:29.821Z,4.05
2018-03-21T11:33:04.272Z,5.55
2018-03-21T11:35:38.856Z,4.78
2018-03-21T11:38:13.135Z,6.15
2018-03-21T11:40:47.708Z,4.53
2018-03-21T11:43:22.039Z,5.20
2018-03-21T11:45:56.739Z,5.10
2018-03-21T11:48:31.050Z,5.20
2018-03-21T11:51:05.582Z,5.85
2018-03-21T11:53:39.996Z,6.18
2018-03-21T11:56:14.504Z,6.25
2018-03-21T11:58:48.924Z,5.85
2018-03-21T12:01:23.480Z,5.95
2018-03-21T12:03:57.759Z,6.80
2018-03-21T12:06:32.183Z,8.30
2018-03-21T12:09:07.473Z,7.32
2018-03-21T12:11:41.990Z,9.02
2018-03-21T12:14:16.701Z,6.22
2018-03-21T12:16:52.224Z,6.40
2018-03-21T12:19:26.755Z,8.15
2018-03-21T12:22:01.311Z,7.47
2018-03-21T12:24:35.574Z,7.70
2018-03-21T12:27:10.164Z,6.30
2018-03-21T12:29:44.626Z,8.77
2018-03-21T12:32:19.390Z,7.82
2018-03-21T12:34:53.860Z,8.45
2018-03-21T12:37:28.844Z,6.62
2018-03-21T12:40:03.139Z,6.80
2018-03-21T12:42:38.942Z,7.32
2018-03-21T12:45:13.836Z,6.80
2018-03-21T12:47:48.584Z,7.53
2018-03-21T12:50:24.381Z,7.10
2018-03-21T12:52:59.070Z,6.47
2018-03-21T12:55:33.580Z,7.05
2018-03-21T12:58:08.120Z,7.55
2018-03-21T13:00:42.665Z,6.82
2018-03-21T13:03:17.178Z,6.45
2018-03-21T13:05:51.604Z,6.93
2018-03-21T13:08:27.019Z,7.00
2018-03-21T13:11:01.312Z,6.60
2018-03-21T13:13:36.509Z,12.27
2018-03-21T13:16:10.938Z,6.60
2018-03-21T13:18:45.737Z,7.15
2018-03-21T13:21:20.308Z,6.35
2018-03-21T13:23:55.182Z,7.80
2018-03-21T13:26:29.809Z,6.62
2018-03-21T13:29:04.632Z,7.53
2018-03-21T13:31:39.743Z,7.75
2018-03-21T13:34:14.503Z,8.85
2018-03-21T13:36:50.167Z,9.32
2018-03-21T13:39:24.776Z,7.72
2018-03-21T13:41:59.296Z,9.07
2018-03-21T13:44:34.025Z,7.47
2018-03-21T13:47:08.618Z,7.18
2018-03-21T13:49:43.080Z,7.40
2018-03-21T13:52:17.604Z,7.07
2018-03-21T13:54:52.160Z,6.25
2018-03-21T13:57:26.630Z,5.57
2018-03-21T14:00:01.399Z,4.62
2018-03-21T14:02:35.874Z,4.75
2018-03-21T14:05:10.420Z,4.97
2018-03-21T14:07:45.752Z,5.10
2018-03-21T14:10:20.484Z,5.40
2018-03-21T14:12:55.008Z,5.40
2018-03-21T14:15:29.768Z,5.82
2018-03-21T14:18:04.200Z,6.03
2018-03-21T14:20:38.720Z,7.45
2018-03-21T14:23:13.281Z,7.82
2018-03-21T14:25:48.664Z,7.37
2018-03-21T14:28:23.210Z,8.25
2018-03-21T14:30:57.708Z,7.55
2018-03-21T14:33:33.052Z,8.35
2018-03-21T14:36:08.400Z,7.07
2018-03-21T14:38:42.788Z,6.90
2018-03-21T14:41:17.424Z,6.95
2018-03-21T14:43:51.851Z,7.45
2018-03-21T14:46:26.410Z,8.45
2018-03-21T14:49:01.628Z,7.18
2018-03-21T14:51:36.547Z,6.62
2018-03-21T14:54:10.856Z,7.35
2018-03-21T14:56:45.387Z,9.07
2018-03-21T14:59:19.828Z,7.00
2018-03-21T15:01:54.440Z,7.40
2018-03-21T15:04:28.958Z,9.15
2018-03-21T15:07:03.688Z,8.60
2018-03-21T15:09:38.216Z,8.43
2018-03-21T15:12:12.941Z,7.50
2018-03-21T15:14:47.480Z,7.50
2018-03-21T15:17:22.610Z,6.80
2018-03-21T15:19:57.048Z,8.20
2018-03-21T15:22:32.466Z,6.55
2018-03-21T15:25:07.469Z,6.35
2018-03-21T15:27:42.334Z,7.47
2018-03-21T15:30:17.863Z,7.37
2018-03-21T15:32:52.417Z,5.00
2018-03-21T15:35:27.526Z,4.60
2018-03-21T15:38:02.279Z,5.28
2018-03-21T15:40:36.654Z,3.60
2018-03-21T15:43:11.104Z,5.15
2018-03-21T15:45:46.370Z,5.10
2018-03-21T15:48:20.981Z,3.83
2018-03-21T15:50:55.379Z,4.87
2018-03-21T15:53:29.992Z,5.00
2018-03-21T15:56:04.365Z,5.43
2018-03-21T15:58:38.874Z,5.20
2018-03-21T16:01:13.708Z,6.10
2018-03-21T16:03:48.277Z,4.57
2018-03-21T16:06:22.739Z,6.65
2018-03-21T16:08:57.364Z,4.87
2018-03-21T16:11:32.518Z,5.57
2018-03-21T16:14:07.852Z,5.40
2018-03-21T16:16:42.296Z,4.80
2018-03-21T16:19:16.988Z,6.07
2018-03-21T16:21:51.403Z,7.00
2018-03-21T16:24:25.948Z,5.72
2018-03-21T16:27:00.348Z,6.70
2018-03-21T16:29:35.002Z,5.53
2018-03-21T16:32:09.388Z,5.65
2018-03-21T16:34:44.095Z,6.40
2018-03-21T16:37:18.581Z,5.20
2018-03-21T16:39:53.290Z,8.35
2018-03-21T16:42:27.755Z,5.78
2018-03-21T16:45:02.335Z,5.35
2018-03-21T16:47:36.778Z,5.82
2018-03-21T16:50:11.372Z,5.70
2018-03-21T16:52:45.808Z,5.45
2018-03-21T16:55:20.431Z,5.57
2018-03-21T16:57:55.561Z,5.20
2018-03-21T17:00:30.292Z,5.62
2018-03-21T17:03:04.688Z,6.65
2018-03-21T17:05:39.348Z,5.37
2018-03-21T17:08:14.361Z,8.40
2018-03-21T17:10:48.997Z,6.15
2018-03-21T17:13:23.604Z,6.00
2018-03-21T17:15:58.264Z,6.30
2018-03-21T17:18:32.643Z,5.72
2018-03-21T17:21:07.000Z,4.82
2018-03-21T17:23:41.436Z,5.87
2018-03-21T17:26:16.167Z,5.60
2018-03-21T17:28:51.706Z,5.97
2018-03-21T17:31:26.201Z,6.97
2018-03-21T17:34:01.002Z,5.72
2018-03-21T17:36:35.666Z,6.35
2018-03-21T17:39:10.081Z,5.43
2018-03-21T17:41:44.872Z,4.80
2018-03-21T17:44:19.383Z,5.10
2018-03-21T17:46:54.818Z,5.10
2018-03-21T17:49:29.158Z,4.95
2018-03-21T17:52:03.839Z,5.00
2018-03-21T17:54:38.247Z,5.90
2018-03-21T17:57:12.875Z,5.90
2018-03-21T17:59:48.217Z,6.97
2018-03-21T18:02:22.963Z,4.70
2018-03-21T18:04:58.311Z,5.07
2018-03-21T18:07:34.244Z,5.50
2018-03-21T18:10:08.759Z,5.25
2018-03-21T18:12:43.916Z,5.18
2018-03-21T18:15:19.374Z,6.00
2018-03-21T18:17:53.977Z,4.93
2018-03-21T18:20:28.513Z,5.50
2018-03-21T18:23:03.430Z,5.50
2018-03-21T18:25:37.774Z,7.30
2018-03-21T18:28:12.297Z,5.00
2018-03-21T18:30:46.768Z,5.37
2018-03-21T18:33:21.320Z,6.25
2018-03-21T18:35:55.744Z,5.90
2018-03-21T18:38:30.369Z,7.80
2018-03-21T18:41:04.670Z,5.25
2018-03-21T18:43:39.208Z,6.70
2018-03-21T18:46:14.323Z,6.00
2018-03-21T18:48:48.896Z,6.00
2018-03-21T18:51:23.345Z,6.05
2018-03-21T18:53:57.930Z,5.68
2018-03-21T18:56:32.513Z,6.82
2018-03-21T18:59:07.193Z,8.65
2018-03-21T19:01:41.771Z,8.20
2018-03-21T19:04:16.222Z,6.70
2018-03-21T19:06:50.795Z,9.38
2018-03-21T19:09:25.260Z,7.00
2018-03-21T19:11:59.705Z,8.65
2018-03-21T19:14:35.124Z,6.07
2018-03-21T19:17:09.719Z,6.90
2018-03-21T19:19:44.389Z,6.62
2018-03-21T19:22:18.896Z,8.10
2018-03-21T19:24:53.630Z,7.40
2018-03-21T19:27:28.772Z,6.45
2018-03-21T19:30:03.321Z,8.98
2018-03-21T19:32:38.639Z,11.55
2018-03-21T19:35:13.975Z,13.50
2018-03-21T19:37:48.387Z,7.20
2018-03-21T19:40:23.880Z,7.10
2018-03-21T19:42:59.176Z,7.35
2018-03-21T19:45:33.708Z,6.87
2018-03-21T19:48:08.835Z,6.78
2018-03-21T19:50:43.380Z,7.68
2018-03-21T19:53:17.859Z,6.65
2018-03-21T19:55:52.424Z,8.18
2018-03-21T19:58:26.816Z,6.87
2018-03-21T20:01:01.256Z,6.70
2018-03-21T20:03:35.702Z,8.73
2018-03-21T20:06:10.312Z,8.02
2018-03-21T20:08:45.221Z,7.12
2018-03-21T20:11:21.496Z,6.32
2018-03-21T20:13:56.644Z,9.57
2018-03-21T20:16:31.161Z,8.27
2018-03-21T20:19:06.840Z,8.88
2018-03-21T20:21:41.460Z,11.18
2018-03-21T20:24:16.618Z,13.50
2018-03-21T20:26:52.125Z,10.63
2018-03-21T20:29:27.156Z,8.70
2018-03-21T20:32:02.604Z,9.85
2018-03-21T20:34:37.135Z,9.98
2018-03-21T20:37:11.955Z,7.97
2018-03-21T20:39:46.783Z,12.68
2018-03-21T20:42:21.528Z,8.70
2018-03-21T20:44:56.164Z,8.43
2018-03-21T20:47:30.802Z,12.07
2018-03-21T20:50:05.399Z,9.27
2018-03-21T20:52:40.016Z,10.27
2018-03-21T20:55:15.142Z,14.35
2018-03-21T20:57:49.676Z,8.15
2018-03-21T21:00:24.823Z,13.52
2018-03-21T21:03:00.156Z,8.02
2018-03-21T21:05:34.718Z,8.23
2018-03-21T21:08:09.413Z,8.02
2018-03-21T21:10:43.940Z,7.80
2018-03-21T21:13:18.489Z,7.70
2018-03-21T21:15:53.156Z,8.23
2018-03-21T21:18:27.709Z,8.80
2018-03-21T21:21:02.337Z,8.45
2018-03-21T21:23:37.166Z,8.07
2018-03-21T21:26:11.464Z,9.10
2018-03-21T21:28:46.319Z,8.93
2018-03-21T21:31:20.852Z,8.90
2018-03-21T21:33:56.177Z,8.77
2018-03-21T21:36:30.716Z,9.57
2018-03-21T21:39:05.431Z,10.02
2018-03-21T21:41:40.055Z,11.18
2018-03-21T21:44:14.888Z,9.82
2018-03-21T21:46:49.331Z,10.00
2018-03-21T21:49:23.936Z,10.10
2018-03-21T21:51:59.120Z,8.32
2018-03-21T21:54:33.903Z,8.07
2018-03-21T21:57:09.042Z,9.70
2018-03-21T21:59:43.569Z,8.27
2018-03-21T22:02:17.983Z,8.20
2018-03-21T22:04:52.631Z,9.27
2018-03-21T22:07:27.064Z,9.18
2018-03-21T22:10:01.589Z,7.87
2018-03-21T22:12:36.088Z,7.32
2018-03-21T22:15:10.750Z,7.15
2018-03-21T22:17:45.534Z,7.50
2018-03-21T22:20:20.411Z,8.15
2018-03-21T22:22:55.487Z,7.30
2018-03-21T22:25:30.717Z,6.55
2018-03-21T22:28:05.097Z,9.25
2018-03-21T22:30:40.492Z,6.45
2018-03-21T22:33:14.907Z,6.85
2018-03-21T22:35:49.304Z,6.75
2018-03-21T22:38:23.763Z,6.80
2018-03-21T22:40:58.344Z,7.68
2018-03-21T22:43:33.511Z,6.32
2018-03-21T22:46:08.253Z,7.00
2018-03-21T22:48:42.676Z,6.50
2018-03-21T22:51:17.200Z,9.23
2018-03-21T22:53:51.940Z,6.55
2018-03-21T22:56:26.548Z,6.87
2018-03-21T22:59:01.031Z,7.47
2018-03-21T23:01:35.596Z,6.53
2018-03-21T23:04:09.841Z,7.15
2018-03-21T23:06:45.258Z,7.53
2018-03-21T23:09:19.676Z,7.90
2018-03-21T23:11:54.307Z,8.27
2018-03-21T23:14:28.846Z,8.00
2018-03-21T23:17:03.564Z,8.80
2018-03-21T23:19:38.064Z,7.75
2018-03-21T23:22:12.820Z,8.45
2018-03-21T23:24:47.249Z,9.30
2018-03-21T23:27:21.756Z,11.50
2018-03-21T23:29:56.855Z,8.55
2018-03-21T23:32:31.427Z,9.63
2018-03-21T23:35:05.958Z,8.27
2018-03-21T23:37:41.493Z,9.13
2018-03-21T23:40:16.638Z,8.60
2018-03-21T23:42:51.564Z,8.30
2018-03-21T23:45:25.972Z,8.45
2018-03-21T23:48:00.538Z,8.65
2018-03-21T23:50:35.036Z,8.98
2018-03-21T23:53:09.662Z,10.88
2018-03-21T23:55:44.092Z,7.18
2018-03-21T23:58:18.698Z,7.53
